sensor_id;sensor_type;location;lat;lon;timestamp;P1;durP1;ratioP1;P2;durP2;ratioP2
13641;SDS011;6894;52.196;9.904;2024-02-28T00:00:27;16.57;;;14.93;;
13641;SDS011;6894;52.196;9.904;2024-02-28T00:02:55;19.93;;;17.87;;
13641;SDS011;6894;52.196;9.904;2024-02-28T00:05:21;19.77;;;17.27;;
13641;SDS011;6894;52.196;9.904;2024-02-28T00:07:48;19.27;;;17.37;;
13641;SDS011;6894;52.196;9.904;2024-02-28T00:10:15;18.00;;;16.17;;
13641;SDS011;6894;52.196;9.904;2024-02-28T00:12:42;19.43;;;17.33;;
13641;SDS011;6894;52.196;9.904;2024-02-28T00:15:10;20.63;;;18.53;;
13641;SDS011;6894;52.196;9.904;2024-02-28T00:17:38;18.10;;;16.33;;
13641;SDS011;6894;52.196;9.904;2024-02-28T00:20:06;18.67;;;16.13;;
13641;SDS011;6894;52.196;9.904;2024-02-28T00:22:34;19.03;;;17.10;;
13641;SDS011;6894;52.196;9.904;2024-02-28T00:25:02;19.93;;;17.93;;
13641;SDS011;6894;52.196;9.904;2024-02-28T00:27:31;19.20;;;16.97;;
13641;SDS011;6894;52.196;9.904;2024-02-28T00:29:58;19.00;;;17.00;;
13641;SDS011;6894;52.196;9.904;2024-02-28T00:32:26;20.27;;;18.03;;
13641;SDS011;6894;52.196;9.904;2024-02-28T00:34:53;19.30;;;17.40;;
13641;SDS011;6894;52.196;9.904;2024-02-28T00:37:19;28.53;;;21.80;;
13641;SDS011;6894;52.196;9.904;2024-02-28T00:39:46;28.27;;;22.17;;
13641;SDS011;6894;52.196;9.904;2024-02-28T00:42:13;22.20;;;18.30;;
13641;SDS011;6894;52.196;9.904;2024-02-28T00:44:40;20.87;;;17.13;;
13641;SDS011;6894;52.196;9.904;2024-02-28T00:47:07;19.23;;;17.20;;
13641;SDS011;6894;52.196;9.904;2024-02-28T00:49:35;18.97;;;16.70;;
13641;SDS011;6894;52.196;9.904;2024-02-28T00:52:03;18.73;;;16.83;;
13641;SDS011;6894;52.196;9.904;2024-02-28T00:54:30;21.20;;;18.17;;
13641;SDS011;6894;52.196;9.904;2024-02-28T00:56:57;19.63;;;17.50;;
13641;SDS011;6894;52.196;9.904;2024-02-28T00:59:25;20.50;;;17.73;;
13641;SDS011;6894;52.196;9.904;2024-02-28T01:01:51;20.53;;;18.43;;
13641;SDS011;6894;52.196;9.904;2024-02-28T01:04:18;21.07;;;18.23;;
13641;SDS011;6894;52.196;9.904;2024-02-28T01:06:46;19.40;;;17.50;;
13641;SDS011;6894;52.196;9.904;2024-02-28T01:09:13;18.63;;;16.57;;
13641;SDS011;6894;52.196;9.904;2024-02-28T01:11:40;21.17;;;18.30;;
13641;SDS011;6894;52.196;9.904;2024-02-28T01:14:06;22.63;;;18.83;;
13641;SDS011;6894;52.196;9.904;2024-02-28T01:16:33;19.03;;;17.00;;
13641;SDS011;6894;52.196;9.904;2024-02-28T01:19:00;22.60;;;18.67;;
13641;SDS011;6894;52.196;9.904;2024-02-28T01:21:28;20.73;;;18.57;;
13641;SDS011;6894;52.196;9.904;2024-02-28T01:23:56;19.93;;;17.40;;
13641;SDS011;6894;52.196;9.904;2024-02-28T01:26:22;21.00;;;18.53;;
13641;SDS011;6894;52.196;9.904;2024-02-28T01:28:49;26.93;;;19.60;;
13641;SDS011;6894;52.196;9.904;2024-02-28T01:31:16;22.53;;;18.90;;
13641;SDS011;6894;52.196;9.904;2024-02-28T01:33:43;25.70;;;19.47;;
13641;SDS011;6894;52.196;9.904;2024-02-28T01:36:10;19.53;;;17.17;;
13641;SDS011;6894;52.196;9.904;2024-02-28T01:38:37;19.27;;;17.10;;
13641;SDS011;6894;52.196;9.904;2024-02-28T01:41:05;21.90;;;17.43;;
13641;SDS011;6894;52.196;9.904;2024-02-28T01:43:32;21.20;;;18.77;;
13641;SDS011;6894;52.196;9.904;2024-02-28T01:45:59;22.27;;;19.87;;
13641;SDS011;6894;52.196;9.904;2024-02-28T01:48:29;23.83;;;19.43;;
13641;SDS011;6894;52.196;9.904;2024-02-28T01:50:56;29.53;;;20.23;;
13641;SDS011;6894;52.196;9.904;2024-02-28T01:53:23;23.33;;;18.20;;
13641;SDS011;6894;52.196;9.904;2024-02-28T01:55:50;23.33;;;18.83;;
13641;SDS011;6894;52.196;9.904;2024-02-28T01:58:19;21.17;;;18.00;;
13641;SDS011;6894;52.196;9.904;2024-02-28T02:00:46;30.63;;;20.63;;
13641;SDS011;6894;52.196;9.904;2024-02-28T02:03:13;23.03;;;19.33;;
13641;SDS011;6894;52.196;9.904;2024-02-28T02:05:41;19.63;;;17.13;;
13641;SDS011;6894;52.196;9.904;2024-02-28T02:08:08;20.33;;;17.40;;
13641;SDS011;6894;52.196;9.904;2024-02-28T02:10:35;21.63;;;17.30;;
13641;SDS011;6894;52.196;9.904;2024-02-28T02:13:05;21.97;;;17.60;;
13641;SDS011;6894;52.196;9.904;2024-02-28T02:15:33;21.07;;;18.23;;
13641;SDS011;6894;52.196;9.904;2024-02-28T02:18:00;22.50;;;17.67;;
13641;SDS011;6894;52.196;9.904;2024-02-28T02:20:27;23.60;;;18.70;;
13641;SDS011;6894;52.196;9.904;2024-02-28T02:22:59;22.63;;;18.20;;
13641;SDS011;6894;52.196;9.904;2024-02-28T02:25:26;19.87;;;17.73;;
13641;SDS011;6894;52.196;9.904;2024-02-28T02:27:53;21.77;;;18.17;;
13641;SDS011;6894;52.196;9.904;2024-02-28T02:30:20;23.03;;;18.67;;
13641;SDS011;6894;52.196;9.904;2024-02-28T02:32:46;22.23;;;16.97;;
13641;SDS011;6894;52.196;9.904;2024-02-28T02:35:13;23.40;;;19.07;;
13641;SDS011;6894;52.196;9.904;2024-02-28T02:37:43;28.60;;;19.47;;
13641;SDS011;6894;52.196;9.904;2024-02-28T02:40:12;23.47;;;19.07;;
13641;SDS011;6894;52.196;9.904;2024-02-28T02:42:39;21.70;;;18.13;;
13641;SDS011;6894;52.196;9.904;2024-02-28T02:45:06;23.33;;;18.00;;
13641;SDS011;6894;52.196;9.904;2024-02-28T02:47:33;23.57;;;18.43;;
13641;SDS011;6894;52.196;9.904;2024-02-28T02:50:00;22.73;;;18.17;;
13641;SDS011;6894;52.196;9.904;2024-02-28T02:52:27;27.27;;;19.27;;
13641;SDS011;6894;52.196;9.904;2024-02-28T02:54:54;25.13;;;19.30;;
13641;SDS011;6894;52.196;9.904;2024-02-28T02:57:22;25.77;;;20.17;;
13641;SDS011;6894;52.196;9.904;2024-02-28T02:59:48;32.10;;;20.33;;
13641;SDS011;6894;52.196;9.904;2024-02-28T03:02:15;25.87;;;19.80;;
13641;SDS011;6894;52.196;9.904;2024-02-28T03:04:42;25.17;;;19.73;;
13641;SDS011;6894;52.196;9.904;2024-02-28T03:07:09;31.60;;;19.40;;
13641;SDS011;6894;52.196;9.904;2024-02-28T03:09:35;24.23;;;18.47;;
13641;SDS011;6894;52.196;9.904;2024-02-28T03:12:02;26.17;;;20.13;;
13641;SDS011;6894;52.196;9.904;2024-02-28T03:14:31;25.10;;;19.97;;
13641;SDS011;6894;52.196;9.904;2024-02-28T03:16:57;21.50;;;17.50;;
13641;SDS011;6894;52.196;9.904;2024-02-28T03:19:24;24.13;;;18.77;;
13641;SDS011;6894;52.196;9.904;2024-02-28T03:21:51;22.30;;;17.37;;
13641;SDS011;6894;52.196;9.904;2024-02-28T03:24:18;22.60;;;17.30;;
13641;SDS011;6894;52.196;9.904;2024-02-28T03:26:44;26.10;;;17.57;;
13641;SDS011;6894;52.196;9.904;2024-02-28T03:29:11;25.03;;;17.30;;
13641;SDS011;6894;52.196;9.904;2024-02-28T03:31:39;23.97;;;18.10;;
13641;SDS011;6894;52.196;9.904;2024-02-28T03:34:06;24.93;;;18.27;;
13641;SDS011;6894;52.196;9.904;2024-02-28T03:36:33;26.30;;;18.07;;
13641;SDS011;6894;52.196;9.904;2024-02-28T03:39:01;25.53;;;18.10;;
13641;SDS011;6894;52.196;9.904;2024-02-28T03:41:27;22.03;;;17.13;;
13641;SDS011;6894;52.196;9.904;2024-02-28T03:43:54;25.83;;;17.93;;
13641;SDS011;6894;52.196;9.904;2024-02-28T03:46:21;24.83;;;18.60;;
13641;SDS011;6894;52.196;9.904;2024-02-28T03:48:49;22.40;;;17.87;;
13641;SDS011;6894;52.196;9.904;2024-02-28T03:51:16;28.97;;;18.73;;
13641;SDS011;6894;52.196;9.904;2024-02-28T03:53:43;25.37;;;17.43;;
13641;SDS011;6894;52.196;9.904;2024-02-28T03:56:10;25.17;;;18.47;;
13641;SDS011;6894;52.196;9.904;2024-02-28T03:58:36;22.90;;;17.03;;
13641;SDS011;6894;52.196;9.904;2024-02-28T04:01:03;27.03;;;18.13;;
13641;SDS011;6894;52.196;9.904;2024-02-28T04:03:30;19.93;;;16.20;;
13641;SDS011;6894;52.196;9.904;2024-02-28T04:05:59;24.60;;;17.30;;
13641;SDS011;6894;52.196;9.904;2024-02-28T04:08:25;22.20;;;16.60;;
13641;SDS011;6894;52.196;9.904;2024-02-28T04:10:52;25.87;;;18.67;;
13641;SDS011;6894;52.196;9.904;2024-02-28T04:13:19;21.57;;;16.53;;
13641;SDS011;6894;52.196;9.904;2024-02-28T04:15:45;23.17;;;16.93;;
13641;SDS011;6894;52.196;9.904;2024-02-28T04:18:12;24.43;;;16.67;;
13641;SDS011;6894;52.196;9.904;2024-02-28T04:20:39;22.63;;;17.07;;
13641;SDS011;6894;52.196;9.904;2024-02-28T04:23:07;22.97;;;17.77;;
13641;SDS011;6894;52.196;9.904;2024-02-28T04:25:34;25.97;;;17.47;;
13641;SDS011;6894;52.196;9.904;2024-02-28T04:28:01;22.60;;;17.00;;
13641;SDS011;6894;52.196;9.904;2024-02-28T04:30:27;22.93;;;17.23;;
13641;SDS011;6894;52.196;9.904;2024-02-28T04:32:54;24.37;;;17.50;;
13641;SDS011;6894;52.196;9.904;2024-02-28T04:35:21;28.03;;;16.97;;
13641;SDS011;6894;52.196;9.904;2024-02-28T04:37:48;21.00;;;15.80;;
13641;SDS011;6894;52.196;9.904;2024-02-28T04:40:16;18.93;;;14.70;;
13641;SDS011;6894;52.196;9.904;2024-02-28T04:42:43;20.17;;;14.90;;
13641;SDS011;6894;52.196;9.904;2024-02-28T04:45:10;21.90;;;15.50;;
13641;SDS011;6894;52.196;9.904;2024-02-28T04:47:37;22.13;;;16.53;;
13641;SDS011;6894;52.196;9.904;2024-02-28T04:50:04;22.23;;;15.77;;
13641;SDS011;6894;52.196;9.904;2024-02-28T04:52:32;21.67;;;16.83;;
13641;SDS011;6894;52.196;9.904;2024-02-28T04:54:59;20.63;;;15.27;;
13641;SDS011;6894;52.196;9.904;2024-02-28T04:57:27;22.40;;;15.77;;
13641;SDS011;6894;52.196;9.904;2024-02-28T04:59:54;21.33;;;15.47;;
13641;SDS011;6894;52.196;9.904;2024-02-28T05:02:20;21.47;;;16.23;;
13641;SDS011;6894;52.196;9.904;2024-02-28T05:04:47;26.83;;;16.80;;
13641;SDS011;6894;52.196;9.904;2024-02-28T05:07:14;24.23;;;15.97;;
13641;SDS011;6894;52.196;9.904;2024-02-28T05:09:41;28.73;;;17.67;;
13641;SDS011;6894;52.196;9.904;2024-02-28T05:12:08;23.93;;;16.57;;
13641;SDS011;6894;52.196;9.904;2024-02-28T05:14:38;31.00;;;17.80;;
13641;SDS011;6894;52.196;9.904;2024-02-28T05:17:05;26.33;;;16.93;;
13641;SDS011;6894;52.196;9.904;2024-02-28T05:19:31;28.67;;;18.40;;
13641;SDS011;6894;52.196;9.904;2024-02-28T05:21:58;24.87;;;17.30;;
13641;SDS011;6894;52.196;9.904;2024-02-28T05:24:26;32.40;;;18.57;;
13641;SDS011;6894;52.196;9.904;2024-02-28T05:26:52;24.23;;;17.67;;
13641;SDS011;6894;52.196;9.904;2024-02-28T05:29:19;31.80;;;17.43;;
13641;SDS011;6894;52.196;9.904;2024-02-28T05:31:47;25.53;;;17.97;;
13641;SDS011;6894;52.196;9.904;2024-02-28T05:34:14;23.77;;;17.37;;
13641;SDS011;6894;52.196;9.904;2024-02-28T05:36:42;30.33;;;17.47;;
13641;SDS011;6894;52.196;9.904;2024-02-28T05:39:09;25.27;;;17.70;;
13641;SDS011;6894;52.196;9.904;2024-02-28T05:41:35;33.13;;;19.20;;
13641;SDS011;6894;52.196;9.904;2024-02-28T05:44:02;23.30;;;16.07;;
13641;SDS011;6894;52.196;9.904;2024-02-28T05:46:29;27.30;;;16.83;;
13641;SDS011;6894;52.196;9.904;2024-02-28T05:48:57;27.37;;;18.63;;
13641;SDS011;6894;52.196;9.904;2024-02-28T05:51:24;35.37;;;19.77;;
13641;SDS011;6894;52.196;9.904;2024-02-28T05:53:51;25.20;;;18.23;;
13641;SDS011;6894;52.196;9.904;2024-02-28T05:56:17;41.93;;;23.67;;
13641;SDS011;6894;52.196;9.904;2024-02-28T05:58:45;31.53;;;20.63;;
13641;SDS011;6894;52.196;9.904;2024-02-28T06:01:12;41.63;;;22.47;;
13641;SDS011;6894;52.196;9.904;2024-02-28T06:03:42;27.70;;;20.30;;
13641;SDS011;6894;52.196;9.904;2024-02-28T06:06:10;27.13;;;18.17;;
13641;SDS011;6894;52.196;9.904;2024-02-28T06:08:38;33.40;;;18.90;;
13641;SDS011;6894;52.196;9.904;2024-02-28T06:11:05;25.20;;;17.50;;
13641;SDS011;6894;52.196;9.904;2024-02-28T06:13:32;34.70;;;19.30;;
13641;SDS011;6894;52.196;9.904;2024-02-28T06:15:59;27.27;;;18.77;;
13641;SDS011;6894;52.196;9.904;2024-02-28T06:18:27;30.20;;;17.83;;
13641;SDS011;6894;52.196;9.904;2024-02-28T06:20:53;25.50;;;17.00;;
13641;SDS011;6894;52.196;9.904;2024-02-28T06:23:22;26.77;;;18.43;;
13641;SDS011;6894;52.196;9.904;2024-02-28T06:25:49;24.70;;;17.80;;
13641;SDS011;6894;52.196;9.904;2024-02-28T06:28:16;33.33;;;18.97;;
13641;SDS011;6894;52.196;9.904;2024-02-28T06:30:43;28.07;;;17.37;;
13641;SDS011;6894;52.196;9.904;2024-02-28T06:33:11;25.20;;;18.10;;
13641;SDS011;6894;52.196;9.904;2024-02-28T06:35:37;30.73;;;18.80;;
13641;SDS011;6894;52.196;9.904;2024-02-28T06:38:04;23.93;;;17.03;;
13641;SDS011;6894;52.196;9.904;2024-02-28T06:40:32;24.30;;;17.00;;
13641;SDS011;6894;52.196;9.904;2024-02-28T06:42:59;28.00;;;17.90;;
13641;SDS011;6894;52.196;9.904;2024-02-28T06:45:25;29.97;;;17.97;;
13641;SDS011;6894;52.196;9.904;2024-02-28T06:47:52;27.20;;;17.10;;
13641;SDS011;6894;52.196;9.904;2024-02-28T06:50:19;30.30;;;20.50;;
13641;SDS011;6894;52.196;9.904;2024-02-28T06:52:45;36.67;;;20.47;;
13641;SDS011;6894;52.196;9.904;2024-02-28T06:55:12;28.30;;;17.23;;
13641;SDS011;6894;52.196;9.904;2024-02-28T06:57:41;28.07;;;18.27;;
13641;SDS011;6894;52.196;9.904;2024-02-28T07:00:09;26.47;;;18.27;;
13641;SDS011;6894;52.196;9.904;2024-02-28T07:02:38;29.30;;;18.37;;
13641;SDS011;6894;52.196;9.904;2024-02-28T07:05:05;31.60;;;19.43;;
13641;SDS011;6894;52.196;9.904;2024-02-28T07:07:32;27.93;;;18.53;;
13641;SDS011;6894;52.196;9.904;2024-02-28T07:09:59;27.37;;;18.97;;
13641;SDS011;6894;52.196;9.904;2024-02-28T07:12:26;29.30;;;20.07;;
13641;SDS011;6894;52.196;9.904;2024-02-28T07:14:54;28.47;;;19.97;;
13641;SDS011;6894;52.196;9.904;2024-02-28T07:17:21;36.73;;;20.63;;
13641;SDS011;6894;52.196;9.904;2024-02-28T07:19:48;30.47;;;19.23;;
13641;SDS011;6894;52.196;9.904;2024-02-28T07:22:15;32.10;;;20.07;;
13641;SDS011;6894;52.196;9.904;2024-02-28T07:24:41;31.70;;;20.80;;
13641;SDS011;6894;52.196;9.904;2024-02-28T07:27:08;31.73;;;20.03;;
13641;SDS011;6894;52.196;9.904;2024-02-28T07:29:36;35.37;;;19.87;;
13641;SDS011;6894;52.196;9.904;2024-02-28T07:32:04;33.53;;;21.27;;
13641;SDS011;6894;52.196;9.904;2024-02-28T07:34:31;36.97;;;21.60;;
13641;SDS011;6894;52.196;9.904;2024-02-28T07:36:58;37.23;;;22.07;;
13641;SDS011;6894;52.196;9.904;2024-02-28T07:39:25;39.23;;;23.03;;
13641;SDS011;6894;52.196;9.904;2024-02-28T07:41:52;39.90;;;21.60;;
13641;SDS011;6894;52.196;9.904;2024-02-28T07:44:19;40.50;;;22.43;;
13641;SDS011;6894;52.196;9.904;2024-02-28T07:46:46;41.53;;;23.10;;
13641;SDS011;6894;52.196;9.904;2024-02-28T07:49:14;38.43;;;21.77;;
13641;SDS011;6894;52.196;9.904;2024-02-28T07:51:41;40.17;;;22.63;;
13641;SDS011;6894;52.196;9.904;2024-02-28T07:54:07;39.73;;;22.27;;
13641;SDS011;6894;52.196;9.904;2024-02-28T07:56:34;45.27;;;22.97;;
13641;SDS011;6894;52.196;9.904;2024-02-28T07:59:01;42.03;;;22.83;;
13641;SDS011;6894;52.196;9.904;2024-02-28T08:01:28;43.20;;;23.70;;
13641;SDS011;6894;52.196;9.904;2024-02-28T08:03:55;44.07;;;23.67;;
13641;SDS011;6894;52.196;9.904;2024-02-28T08:06:23;40.43;;;22.50;;
13641;SDS011;6894;52.196;9.904;2024-02-28T08:08:50;43.37;;;24.23;;
13641;SDS011;6894;52.196;9.904;2024-02-28T08:11:17;42.50;;;22.07;;
13641;SDS011;6894;52.196;9.904;2024-02-28T08:13:44;45.57;;;23.87;;
13641;SDS011;6894;52.196;9.904;2024-02-28T08:16:10;45.33;;;24.13;;
13641;SDS011;6894;52.196;9.904;2024-02-28T08:18:37;45.67;;;24.83;;
13641;SDS011;6894;52.196;9.904;2024-02-28T08:21:04;42.80;;;23.43;;
13641;SDS011;6894;52.196;9.904;2024-02-28T08:23:32;46.67;;;24.17;;
13641;SDS011;6894;52.196;9.904;2024-02-28T08:25:59;52.83;;;26.57;;
13641;SDS011;6894;52.196;9.904;2024-02-28T08:28:26;50.57;;;25.23;;
13641;SDS011;6894;52.196;9.904;2024-02-28T08:30:52;60.10;;;24.83;;
13641;SDS011;6894;52.196;9.904;2024-02-28T08:33:19;48.30;;;24.67;;
13641;SDS011;6894;52.196;9.904;2024-02-28T08:35:46;46.73;;;25.20;;
13641;SDS011;6894;52.196;9.904;2024-02-28T08:38:15;49.67;;;25.00;;
13641;SDS011;6894;52.196;9.904;2024-02-28T08:40:44;46.67;;;24.10;;
13641;SDS011;6894;52.196;9.904;2024-02-28T08:43:11;49.70;;;25.47;;
13641;SDS011;6894;52.196;9.904;2024-02-28T08:45:38;46.43;;;25.67;;
13641;SDS011;6894;52.196;9.904;2024-02-28T08:48:05;48.93;;;25.20;;
13641;SDS011;6894;52.196;9.904;2024-02-28T08:50:32;45.13;;;22.97;;
13641;SDS011;6894;52.196;9.904;2024-02-28T08:52:59;47.90;;;24.50;;
13641;SDS011;6894;52.196;9.904;2024-02-28T08:55:26;46.67;;;24.83;;
13641;SDS011;6894;52.196;9.904;2024-02-28T08:57:55;41.27;;;22.33;;
13641;SDS011;6894;52.196;9.904;2024-02-28T09:00:22;46.97;;;24.47;;
13641;SDS011;6894;52.196;9.904;2024-02-28T09:02:48;46.93;;;24.53;;
13641;SDS011;6894;52.196;9.904;2024-02-28T09:05:15;44.87;;;23.23;;
13641;SDS011;6894;52.196;9.904;2024-02-28T09:07:43;46.03;;;23.97;;
13641;SDS011;6894;52.196;9.904;2024-02-28T09:10:11;42.83;;;23.30;;
13641;SDS011;6894;52.196;9.904;2024-02-28T09:12:38;41.70;;;22.40;;
13641;SDS011;6894;52.196;9.904;2024-02-28T09:15:06;41.97;;;23.17;;
13641;SDS011;6894;52.196;9.904;2024-02-28T09:17:33;42.93;;;22.33;;
13641;SDS011;6894;52.196;9.904;2024-02-28T09:20:00;40.87;;;21.47;;
13641;SDS011;6894;52.196;9.904;2024-02-28T09:22:29;37.63;;;22.33;;
13641;SDS011;6894;52.196;9.904;2024-02-28T09:24:56;40.43;;;23.17;;
13641;SDS011;6894;52.196;9.904;2024-02-28T09:27:22;33.67;;;20.30;;
13641;SDS011;6894;52.196;9.904;2024-02-28T09:29:51;34.17;;;21.93;;
13641;SDS011;6894;52.196;9.904;2024-02-28T09:32:19;35.43;;;21.80;;
13641;SDS011;6894;52.196;9.904;2024-02-28T09:34:46;31.70;;;19.87;;
13641;SDS011;6894;52.196;9.904;2024-02-28T09:37:13;33.13;;;20.23;;
13641;SDS011;6894;52.196;9.904;2024-02-28T09:39:42;35.83;;;19.83;;
13641;SDS011;6894;52.196;9.904;2024-02-28T09:42:09;39.20;;;21.07;;
13641;SDS011;6894;52.196;9.904;2024-02-28T09:44:36;31.10;;;19.70;;
13641;SDS011;6894;52.196;9.904;2024-02-28T09:47:04;35.83;;;20.50;;
13641;SDS011;6894;52.196;9.904;2024-02-28T09:49:33;34.17;;;20.70;;
13641;SDS011;6894;52.196;9.904;2024-02-28T09:52:01;35.10;;;20.63;;
13641;SDS011;6894;52.196;9.904;2024-02-28T09:54:30;36.07;;;21.00;;
13641;SDS011;6894;52.196;9.904;2024-02-28T09:56:57;33.03;;;21.27;;
13641;SDS011;6894;52.196;9.904;2024-02-28T09:59:24;37.90;;;21.17;;
13641;SDS011;6894;52.196;9.904;2024-02-28T10:01:53;36.80;;;22.00;;
13641;SDS011;6894;52.196;9.904;2024-02-28T10:04:22;34.53;;;22.00;;
13641;SDS011;6894;52.196;9.904;2024-02-28T10:06:52;33.47;;;21.80;;
13641;SDS011;6894;52.196;9.904;2024-02-28T10:09:19;35.53;;;21.17;;
13641;SDS011;6894;52.196;9.904;2024-02-28T10:11:45;34.33;;;22.03;;
13641;SDS011;6894;52.196;9.904;2024-02-28T10:14:16;36.40;;;22.57;;
13641;SDS011;6894;52.196;9.904;2024-02-28T10:16:44;32.27;;;21.73;;
13641;SDS011;6894;52.196;9.904;2024-02-28T10:19:11;34.90;;;22.57;;
13641;SDS011;6894;52.196;9.904;2024-02-28T10:21:38;38.03;;;22.17;;
13641;SDS011;6894;52.196;9.904;2024-02-28T10:24:06;34.00;;;22.13;;
13641;SDS011;6894;52.196;9.904;2024-02-28T10:26:41;36.10;;;21.37;;
13641;SDS011;6894;52.196;9.904;2024-02-28T10:29:08;34.77;;;22.00;;
13641;SDS011;6894;52.196;9.904;2024-02-28T10:31:35;32.57;;;20.13;;
13641;SDS011;6894;52.196;9.904;2024-02-28T10:34:02;38.63;;;22.80;;
13641;SDS011;6894;52.196;9.904;2024-02-28T10:36:31;38.97;;;21.67;;
13641;SDS011;6894;52.196;9.904;2024-02-28T10:38:59;36.83;;;21.93;;
13641;SDS011;6894;52.196;9.904;2024-02-28T10:41:27;35.97;;;21.33;;
13641;SDS011;6894;52.196;9.904;2024-02-28T10:43:55;36.33;;;22.47;;
13641;SDS011;6894;52.196;9.904;2024-02-28T10:46:23;30.90;;;20.90;;
13641;SDS011;6894;52.196;9.904;2024-02-28T10:48:50;38.33;;;22.10;;
13641;SDS011;6894;52.196;9.904;2024-02-28T10:51:18;37.77;;;21.73;;
13641;SDS011;6894;52.196;9.904;2024-02-28T10:53:49;39.50;;;23.37;;
13641;SDS011;6894;52.196;9.904;2024-02-28T10:56:24;43.60;;;23.70;;
13641;SDS011;6894;52.196;9.904;2024-02-28T10:58:53;40.47;;;22.93;;
13641;SDS011;6894;52.196;9.904;2024-02-28T11:01:25;39.33;;;23.03;;
13641;SDS011;6894;52.196;9.904;2024-02-28T11:03:52;36.63;;;21.87;;
13641;SDS011;6894;52.196;9.904;2024-02-28T11:06:20;40.47;;;23.27;;
13641;SDS011;6894;52.196;9.904;2024-02-28T11:08:49;40.63;;;23.30;;
13641;SDS011;6894;52.196;9.904;2024-02-28T11:11:19;40.50;;;24.13;;
13641;SDS011;6894;52.196;9.904;2024-02-28T11:13:54;39.47;;;23.60;;
13641;SDS011;6894;52.196;9.904;2024-02-28T11:16:27;36.37;;;23.63;;
13641;SDS011;6894;52.196;9.904;2024-02-28T11:18:55;42.93;;;24.23;;
13641;SDS011;6894;52.196;9.904;2024-02-28T11:21:23;35.57;;;22.43;;
13641;SDS011;6894;52.196;9.904;2024-02-28T11:23:56;40.47;;;24.40;;
13641;SDS011;6894;52.196;9.904;2024-02-28T11:26:24;39.10;;;24.33;;
13641;SDS011;6894;52.196;9.904;2024-02-28T11:28:53;38.93;;;23.57;;
13641;SDS011;6894;52.196;9.904;2024-02-28T11:31:20;38.53;;;22.73;;
13641;SDS011;6894;52.196;9.904;2024-02-28T11:33:47;42.03;;;24.77;;
13641;SDS011;6894;52.196;9.904;2024-02-28T11:36:14;44.17;;;23.77;;
13641;SDS011;6894;52.196;9.904;2024-02-28T11:38:41;41.40;;;24.70;;
13641;SDS011;6894;52.196;9.904;2024-02-28T11:41:08;42.07;;;23.97;;
13641;SDS011;6894;52.196;9.904;2024-02-28T11:43:34;38.60;;;23.23;;
13641;SDS011;6894;52.196;9.904;2024-02-28T11:46:07;41.37;;;24.10;;
13641;SDS011;6894;52.196;9.904;2024-02-28T11:48:34;40.37;;;24.07;;
13641;SDS011;6894;52.196;9.904;2024-02-28T11:51:01;41.63;;;25.30;;
13641;SDS011;6894;52.196;9.904;2024-02-28T11:53:28;44.47;;;24.23;;
13641;SDS011;6894;52.196;9.904;2024-02-28T11:55:54;43.80;;;23.93;;
13641;SDS011;6894;52.196;9.904;2024-02-28T11:58:22;43.00;;;23.20;;
13641;SDS011;6894;52.196;9.904;2024-02-28T12:00:49;40.50;;;23.97;;
13641;SDS011;6894;52.196;9.904;2024-02-28T12:03:21;42.13;;;23.30;;
13641;SDS011;6894;52.196;9.904;2024-02-28T12:05:48;45.80;;;24.23;;
13641;SDS011;6894;52.196;9.904;2024-02-28T12:08:15;42.87;;;24.13;;
13641;SDS011;6894;52.196;9.904;2024-02-28T12:10:43;43.73;;;24.73;;
13641;SDS011;6894;52.196;9.904;2024-02-28T12:13:10;41.17;;;25.33;;
13641;SDS011;6894;52.196;9.904;2024-02-28T12:15:38;43.33;;;24.23;;
13641;SDS011;6894;52.196;9.904;2024-02-28T12:18:07;44.73;;;25.67;;
13641;SDS011;6894;52.196;9.904;2024-02-28T12:20:36;44.33;;;24.73;;
13641;SDS011;6894;52.196;9.904;2024-02-28T12:23:03;40.23;;;24.33;;
13641;SDS011;6894;52.196;9.904;2024-02-28T12:25:30;44.03;;;25.73;;
13641;SDS011;6894;52.196;9.904;2024-02-28T12:27:57;42.47;;;24.83;;
13641;SDS011;6894;52.196;9.904;2024-02-28T12:30:23;46.63;;;26.70;;
13641;SDS011;6894;52.196;9.904;2024-02-28T12:32:50;41.97;;;24.43;;
13641;SDS011;6894;52.196;9.904;2024-02-28T12:35:17;42.77;;;25.00;;
13641;SDS011;6894;52.196;9.904;2024-02-28T12:37:45;42.20;;;25.30;;
13641;SDS011;6894;52.196;9.904;2024-02-28T12:40:13;48.00;;;27.23;;
13641;SDS011;6894;52.196;9.904;2024-02-28T12:42:42;45.97;;;27.47;;
13641;SDS011;6894;52.196;9.904;2024-02-28T12:45:09;42.73;;;24.83;;
13641;SDS011;6894;52.196;9.904;2024-02-28T12:47:36;41.50;;;24.33;;
13641;SDS011;6894;52.196;9.904;2024-02-28T12:50:03;42.20;;;24.67;;
13641;SDS011;6894;52.196;9.904;2024-02-28T12:52:32;41.27;;;25.47;;
13641;SDS011;6894;52.196;9.904;2024-02-28T12:55:00;43.03;;;25.80;;
13641;SDS011;6894;52.196;9.904;2024-02-28T12:57:27;39.40;;;25.93;;
13641;SDS011;6894;52.196;9.904;2024-02-28T12:59:54;43.60;;;25.63;;
13641;SDS011;6894;52.196;9.904;2024-02-28T13:02:21;38.87;;;25.10;;
13641;SDS011;6894;52.196;9.904;2024-02-28T13:04:48;40.77;;;23.60;;
13641;SDS011;6894;52.196;9.904;2024-02-28T13:07:15;36.93;;;24.13;;
13641;SDS011;6894;52.196;9.904;2024-02-28T13:09:44;38.53;;;24.63;;
13641;SDS011;6894;52.196;9.904;2024-02-28T13:12:12;38.50;;;24.10;;
13641;SDS011;6894;52.196;9.904;2024-02-28T13:14:39;41.77;;;25.97;;
13641;SDS011;6894;52.196;9.904;2024-02-28T13:17:06;40.93;;;24.77;;
13641;SDS011;6894;52.196;9.904;2024-02-28T13:19:33;36.63;;;23.00;;
13641;SDS011;6894;52.196;9.904;2024-02-28T13:22:00;39.00;;;23.43;;
13641;SDS011;6894;52.196;9.904;2024-02-28T13:24:27;39.07;;;24.80;;
13641;SDS011;6894;52.196;9.904;2024-02-28T13:26:54;39.37;;;24.10;;
13641;SDS011;6894;52.196;9.904;2024-02-28T13:29:22;34.33;;;24.47;;
13641;SDS011;6894;52.196;9.904;2024-02-28T13:31:49;37.57;;;25.60;;
13641;SDS011;6894;52.196;9.904;2024-02-28T13:34:16;39.50;;;25.53;;
13641;SDS011;6894;52.196;9.904;2024-02-28T13:36:42;40.57;;;26.10;;
13641;SDS011;6894;52.196;9.904;2024-02-28T13:39:09;39.07;;;24.73;;
13641;SDS011;6894;52.196;9.904;2024-02-28T13:41:37;35.87;;;23.50;;
13641;SDS011;6894;52.196;9.904;2024-02-28T13:44:04;39.63;;;25.07;;
13641;SDS011;6894;52.196;9.904;2024-02-28T13:46:32;45.27;;;26.67;;
13641;SDS011;6894;52.196;9.904;2024-02-28T13:48:59;38.10;;;24.40;;
13641;SDS011;6894;52.196;9.904;2024-02-28T13:51:26;37.00;;;24.37;;
13641;SDS011;6894;52.196;9.904;2024-02-28T13:53:53;37.47;;;24.37;;
13641;SDS011;6894;52.196;9.904;2024-02-28T13:56:19;38.33;;;23.70;;
13641;SDS011;6894;52.196;9.904;2024-02-28T13:58:46;41.40;;;25.87;;
13641;SDS011;6894;52.196;9.904;2024-02-28T14:01:13;43.73;;;24.90;;
13641;SDS011;6894;52.196;9.904;2024-02-28T14:03:41;39.33;;;25.07;;
13641;SDS011;6894;52.196;9.904;2024-02-28T14:06:08;35.73;;;23.23;;
13641;SDS011;6894;52.196;9.904;2024-02-28T14:08:35;40.00;;;24.70;;
13641;SDS011;6894;52.196;9.904;2024-02-28T14:11:02;44.00;;;26.20;;
13641;SDS011;6894;52.196;9.904;2024-02-28T14:13:29;39.27;;;24.93;;
13641;SDS011;6894;52.196;9.904;2024-02-28T14:15:56;35.10;;;24.33;;
13641;SDS011;6894;52.196;9.904;2024-02-28T14:18:23;39.00;;;24.00;;
13641;SDS011;6894;52.196;9.904;2024-02-28T14:20:51;42.67;;;25.83;;
13641;SDS011;6894;52.196;9.904;2024-02-28T14:23:18;38.33;;;23.97;;
13641;SDS011;6894;52.196;9.904;2024-02-28T14:25:46;39.77;;;23.67;;
13641;SDS011;6894;52.196;9.904;2024-02-28T14:28:13;39.00;;;24.47;;
13641;SDS011;6894;52.196;9.904;2024-02-28T14:30:40;37.77;;;23.40;;
13641;SDS011;6894;52.196;9.904;2024-02-28T14:33:07;39.27;;;24.87;;